createdAt,value
2018-06-02T06:01:52.513Z,1332.00
2018-06-02T06:02:52.290Z,1648.00
2018-06-02T06:07:11.343Z,3336.00
2018-06-02T06:08:11.227Z,3272.00
2018-06-02T06:10:15.538Z,3368.00
2018-06-02T06:11:14.586Z,3564.00
2018-06-02T06:13:10.826Z,3748.00
2018-06-02T06:14:10.746Z,3836.00
2018-06-02T06:16:15.265Z,3624.00
2018-06-02T06:17:15.477Z,3432.00
2018-06-02T06:19:13.616Z,3280.00
2018-06-02T06:21:30.781Z,3628.00
2018-06-02T06:22:30.646Z,3772.00
2018-06-02T06:24:31.491Z,3652.00
2018-06-02T06:25:31.787Z,3224.00
2018-06-02T06:27:29.099Z,3356.00
2018-06-02T06:28:28.610Z,3144.00
2018-06-02T06:30:26.919Z,3112.00
2018-06-02T06:31:26.434Z,3248.00
2018-06-02T06:33:31.156Z,3200.00
2018-06-02T06:34:31.707Z,3240.00
2018-06-02T06:35:31.053Z,3192.00
2018-06-02T06:36:31.090Z,3044.00
2018-06-02T06:37:31.006Z,3140.00
2018-06-02T06:38:31.211Z,3312.00
2018-06-02T06:39:30.977Z,3224.00
2018-06-02T06:40:30.932Z,3020.00
2018-06-02T06:41:31.006Z,4060.00
2018-06-02T06:42:30.902Z,4600.00
2018-06-02T06:43:31.028Z,3968.00
2018-06-02T06:44:30.843Z,3436.00
2018-06-02T06:45:30.866Z,3524.00
2018-06-02T06:46:30.796Z,3116.00
2018-06-02T06:47:30.821Z,2848.00
2018-06-02T06:48:30.747Z,2524.00
2018-06-02T06:49:30.867Z,2624.00
2018-06-02T06:50:30.684Z,2552.00
2018-06-02T06:51:30.687Z,2660.00
2018-06-02T06:52:30.634Z,2516.00
2018-06-02T06:53:30.734Z,2300.00
2018-06-02T06:54:30.586Z,2536.00
2018-06-02T06:55:30.646Z,2596.00
2018-06-02T06:56:30.544Z,2224.00
2018-06-02T06:57:30.573Z,2012.00
2018-06-02T06:58:30.485Z,2272.00
2018-06-02T06:59:30.583Z,2436.00
2018-06-02T07:00:30.437Z,2740.00
2018-06-02T07:01:30.427Z,2488.00
2018-06-02T07:02:30.475Z,2404.00
2018-06-02T07:03:30.361Z,2768.00
2018-06-02T07:04:30.388Z,2896.00
2018-06-02T07:05:30.315Z,2788.00
2018-06-02T07:06:30.399Z,2880.00
2018-06-02T07:07:30.275Z,3208.00
2018-06-02T07:08:30.318Z,3312.00
2018-06-02T07:09:30.218Z,3972.00
2018-06-02T07:10:30.290Z,4452.00
2018-06-02T07:11:49.309Z,4360.00
2018-06-02T07:13:29.024Z,5016.00
2018-06-02T07:14:28.992Z,4768.00
2018-06-02T07:16:42.554Z,4048.00
2018-06-02T07:17:23.398Z,4208.00
2018-06-02T07:19:19.357Z,3528.00
2018-06-02T07:20:19.142Z,3216.00
2018-06-02T07:22:24.595Z,2828.00
2018-06-02T07:23:24.516Z,2696.00
2018-06-02T07:25:28.271Z,2220.00
2018-06-02T07:26:46.395Z,1944.00
2018-06-02T07:28:40.937Z,1744.00
2018-06-02T07:29:40.544Z,1952.00
2018-06-02T07:31:45.550Z,3624.00
2018-06-02T07:32:45.066Z,3792.00
2018-06-02T07:34:46.208Z,4592.00
2018-06-02T07:35:45.442Z,4164.00
2018-06-02T07:37:49.366Z,4168.00
2018-06-02T07:38:48.645Z,3884.00
2018-06-02T07:39:48.777Z,3672.00
2018-06-02T07:40:49.156Z,3724.00
2018-06-02T07:41:48.661Z,3836.00
2018-06-02T07:42:48.307Z,3900.00
2018-06-02T07:43:48.199Z,3736.00
2018-06-02T07:44:48.335Z,3464.00
2018-06-02T07:45:48.229Z,3256.00
2018-06-02T07:46:48.153Z,2948.00
2018-06-02T07:47:48.204Z,2532.00
2018-06-02T07:48:48.141Z,2464.00
2018-06-02T07:49:48.076Z,2532.00
2018-06-02T07:50:48.024Z,2520.00
2018-06-02T07:51:47.993Z,2424.00
2018-06-02T07:52:47.978Z,2548.00
2018-06-02T07:53:47.958Z,2712.00
2018-06-02T07:54:47.987Z,2688.00
2018-06-02T07:55:47.993Z,2528.00
2018-06-02T07:56:47.988Z,2312.00
2018-06-02T07:57:47.856Z,1848.00
2018-06-02T07:58:47.822Z,1880.00
2018-06-02T07:59:47.910Z,1804.00
2018-06-02T08:00:47.784Z,1716.00
2018-06-02T08:01:47.880Z,1788.00
2018-06-02T08:02:47.839Z,1688.00
2018-06-02T08:03:47.773Z,1656.00
2018-06-02T08:04:47.709Z,1848.00
2018-06-02T08:05:47.731Z,1924.00
2018-06-02T08:06:47.698Z,1920.00
2018-06-02T08:07:47.685Z,1944.00
2018-06-02T08:08:47.658Z,2144.00
2018-06-02T08:09:47.637Z,2420.00
2018-06-02T08:10:47.573Z,2580.00
2018-06-02T08:11:47.620Z,2480.00
2018-06-02T08:12:47.568Z,2332.00
2018-06-02T08:13:47.517Z,2340.00
2018-06-02T08:14:47.498Z,2432.00
2018-06-02T08:15:47.489Z,2616.00
2018-06-02T08:16:47.413Z,2824.00
2018-06-02T08:17:47.466Z,2920.00
2018-06-02T08:18:47.348Z,2916.00
2018-06-02T08:19:47.312Z,2880.00
2018-06-02T08:20:47.327Z,2852.00
2018-06-02T08:21:47.260Z,2920.00
2018-06-02T08:22:47.234Z,3296.00
2018-06-02T08:23:47.208Z,3596.00
2018-06-02T08:24:47.185Z,3828.00
2018-06-02T08:25:47.167Z,3860.00
2018-06-02T08:26:47.130Z,3652.00
2018-06-02T08:27:47.114Z,3764.00
2018-06-02T08:28:47.148Z,3928.00
2018-06-02T08:29:47.135Z,3592.00
2018-06-02T08:30:47.094Z,3504.00
2018-06-02T08:31:47.057Z,3120.00
2018-06-02T08:32:46.986Z,2932.00
2018-06-02T08:33:46.998Z,2684.00
2018-06-02T08:34:46.942Z,2616.00
2018-06-02T08:35:46.908Z,2672.00
2018-06-02T08:36:46.891Z,2728.00
2018-06-02T08:37:46.871Z,2788.00
2018-06-02T08:38:46.850Z,2968.00
2018-06-02T08:39:46.839Z,3124.00
2018-06-02T08:40:46.787Z,3216.00
2018-06-02T08:41:46.770Z,3244.00
2018-06-02T08:42:46.741Z,3384.00
2018-06-02T08:43:46.740Z,3632.00
2018-06-02T08:44:46.858Z,3940.00
2018-06-02T08:45:46.694Z,4328.00
2018-06-02T08:46:46.665Z,4628.00
2018-06-02T08:47:46.627Z,4584.00
2018-06-02T08:48:46.590Z,4644.00
2018-06-02T08:49:46.569Z,4596.00
2018-06-02T08:50:46.550Z,4556.00
2018-06-02T08:51:46.544Z,4800.00
2018-06-02T08:52:46.490Z,5676.00
2018-06-02T08:53:46.466Z,6680.00
2018-06-02T08:54:46.441Z,7124.00
2018-06-02T08:55:46.419Z,7536.00
2018-06-02T08:56:46.405Z,7888.00
2018-06-02T08:57:46.391Z,7640.00
2018-06-02T08:58:46.352Z,7144.00
2018-06-02T08:59:47.170Z,7372.00
2018-06-02T09:00:46.303Z,8716.00
2018-06-02T09:01:46.279Z,9476.00
2018-06-02T09:02:46.252Z,9164.00
2018-06-02T09:03:46.246Z,7376.00
2018-06-02T09:04:46.234Z,6136.00
2018-06-02T09:05:46.193Z,5696.00
2018-06-02T09:06:46.160Z,5776.00
2018-06-02T09:07:46.170Z,5644.00
2018-06-02T09:08:46.115Z,5176.00
2018-06-02T09:09:46.118Z,5512.00
2018-06-02T09:10:46.079Z,6456.00
2018-06-02T09:11:46.052Z,7456.00
2018-06-02T09:12:46.019Z,8572.00
2018-06-02T09:13:46.024Z,9480.00
2018-06-02T09:14:46.011Z,9412.00
2018-06-02T09:15:45.953Z,9220.00
2018-06-02T09:16:45.935Z,9296.00
2018-06-02T09:17:45.917Z,9324.00
2018-06-02T09:18:45.885Z,8892.00
2018-06-02T09:19:45.889Z,8636.00
2018-06-02T09:20:45.831Z,8016.00
2018-06-02T09:21:45.945Z,7532.00
2018-06-02T09:22:45.802Z,7404.00
2018-06-02T09:23:45.765Z,7372.00
2018-06-02T09:24:45.795Z,7624.00
2018-06-02T09:25:45.729Z,8620.00
2018-06-02T09:26:45.759Z,9068.00
2018-06-02T09:27:45.666Z,9012.00
2018-06-02T09:28:45.705Z,9460.00
2018-06-02T09:29:45.623Z,9792.00
2018-06-02T09:30:45.740Z,9584.00
2018-06-02T09:31:45.610Z,8840.00
2018-06-02T09:32:45.546Z,8668.00
2018-06-02T09:33:45.533Z,8284.00
2018-06-02T09:34:45.507Z,8124.00
2018-06-02T09:35:45.478Z,8184.00
2018-06-02T09:36:45.457Z,8364.00
2018-06-02T09:37:45.442Z,8988.00
2018-06-02T09:38:45.415Z,9272.00
2018-06-02T09:39:45.387Z,9408.00
2018-06-02T09:40:45.366Z,9220.00
2018-06-02T09:41:45.362Z,8948.00
2018-06-02T09:42:45.320Z,8696.00
2018-06-02T09:43:45.301Z,8568.00
2018-06-02T09:44:45.309Z,8288.00
2018-06-02T09:45:45.251Z,8264.00
2018-06-02T09:46:45.229Z,8552.00
2018-06-02T09:47:45.220Z,8752.00
2018-06-02T09:48:45.195Z,8976.00
2018-06-02T09:49:45.164Z,9356.00
2018-06-02T09:50:45.143Z,9184.00
2018-06-02T09:51:45.145Z,9404.00
2018-06-02T09:52:45.093Z,9392.00
2018-06-02T09:53:45.066Z,9400.00
2018-06-02T09:54:45.047Z,9584.00
2018-06-02T09:55:45.045Z,9456.00
2018-06-02T09:56:45.008Z,10228.00
2018-06-02T09:57:44.980Z,10416.00
2018-06-02T09:58:44.964Z,10012.00
2018-06-02T09:59:44.928Z,10108.00
2018-06-02T10:00:44.912Z,10568.00
2018-06-02T10:01:44.891Z,10456.00
2018-06-02T10:02:44.871Z,10376.00
2018-06-02T10:03:44.853Z,9820.00
2018-06-02T10:04:44.869Z,9124.00
2018-06-02T10:05:44.888Z,8424.00
2018-06-02T10:06:44.771Z,8064.00
2018-06-02T10:07:44.749Z,8116.00
2018-06-02T10:08:44.734Z,8184.00
2018-06-02T10:09:44.737Z,8152.00
2018-06-02T10:10:44.685Z,8468.00
2018-06-02T10:11:44.663Z,9152.00
2018-06-02T10:12:44.653Z,9912.00
2018-06-02T10:13:44.622Z,10100.00
2018-06-02T10:14:44.596Z,9656.00
2018-06-02T10:15:44.577Z,9300.00
2018-06-02T10:16:44.549Z,9520.00
2018-06-02T10:17:44.530Z,9612.00
2018-06-02T10:18:44.509Z,9808.00
2018-06-02T10:19:44.496Z,9748.00
2018-06-02T10:20:44.470Z,9684.00
2018-06-02T10:21:44.441Z,9700.00
2018-06-02T10:22:44.419Z,9384.00
2018-06-02T10:23:44.411Z,8832.00
2018-06-02T10:24:44.576Z,8844.00
2018-06-02T10:25:44.349Z,9012.00
2018-06-02T10:26:44.341Z,9456.00
2018-06-02T10:27:44.317Z,9668.00
2018-06-02T10:28:44.286Z,9504.00
2018-06-02T10:29:44.266Z,9016.00
2018-06-02T10:30:44.319Z,8788.00
2018-06-02T10:31:44.219Z,8492.00
2018-06-02T10:32:44.202Z,8604.00
2018-06-02T10:33:44.180Z,9008.00
2018-06-02T10:34:44.154Z,8700.00
2018-06-02T10:35:44.297Z,8332.00
2018-06-02T10:36:44.109Z,8100.00
2018-06-02T10:37:44.115Z,7852.00
2018-06-02T10:38:44.067Z,7876.00
2018-06-02T10:39:44.040Z,7940.00
2018-06-02T10:40:44.025Z,8092.00
2018-06-02T10:41:44.000Z,8204.00
2018-06-02T10:42:43.976Z,8168.00
2018-06-02T10:43:43.957Z,7796.00
2018-06-02T10:44:43.944Z,7252.00
2018-06-02T10:45:43.912Z,6764.00
2018-06-02T10:46:43.893Z,6532.00
2018-06-02T10:47:43.871Z,6816.00
2018-06-02T10:48:43.846Z,7596.00
2018-06-02T10:49:43.838Z,8380.00
2018-06-02T10:50:43.814Z,8340.00
2018-06-02T10:51:43.788Z,8492.00
2018-06-02T10:52:43.762Z,8704.00
2018-06-02T10:53:43.737Z,8928.00
2018-06-02T10:54:43.734Z,9280.00
2018-06-02T10:55:43.696Z,8844.00
2018-06-02T10:56:43.664Z,7832.00
2018-06-02T10:57:43.647Z,7000.00
2018-06-02T10:58:43.637Z,6588.00
2018-06-02T10:59:43.608Z,6620.00
2018-06-02T11:00:43.588Z,6852.00
2018-06-02T11:01:43.565Z,7104.00
2018-06-02T11:02:43.541Z,7396.00
2018-06-02T11:03:43.512Z,7748.00
2018-06-02T11:04:43.503Z,7968.00
2018-06-02T11:05:43.478Z,7572.00
2018-06-02T11:06:43.457Z,7184.00
2018-06-02T11:07:43.430Z,7004.00
2018-06-02T11:08:43.409Z,7160.00
2018-06-02T11:09:43.384Z,7536.00
2018-06-02T11:10:43.371Z,8100.00
2018-06-02T11:11:43.339Z,8372.00
2018-06-02T11:12:43.325Z,8308.00
2018-06-02T11:13:43.295Z,8140.00
2018-06-02T11:14:43.272Z,8284.00
2018-06-02T11:15:43.255Z,8768.00
2018-06-02T11:16:43.235Z,9304.00
2018-06-02T11:17:43.214Z,9576.00
2018-06-02T11:18:43.188Z,9472.00
2018-06-02T11:19:43.173Z,9148.00
2018-06-02T11:20:43.185Z,8776.00
2018-06-02T11:21:43.120Z,8216.00
2018-06-02T11:22:43.099Z,7448.00
2018-06-02T11:23:43.073Z,6704.00
2018-06-02T11:24:43.054Z,6296.00
2018-06-02T11:25:43.057Z,6120.00
2018-06-02T11:26:43.022Z,6100.00
2018-06-02T11:27:43.010Z,6072.00
2018-06-02T11:28:42.970Z,5960.00
2018-06-02T11:29:42.943Z,5704.00
2018-06-02T11:30:42.956Z,5212.00
2018-06-02T11:31:42.911Z,4840.00
2018-06-02T11:32:42.881Z,4676.00
2018-06-02T11:33:42.856Z,4736.00
2018-06-02T11:34:42.831Z,4860.00
2018-06-02T11:35:42.812Z,4880.00
2018-06-02T11:36:42.799Z,4472.00
2018-06-02T11:37:42.779Z,3928.00
2018-06-02T11:38:42.752Z,3680.00
2018-06-02T11:39:42.725Z,3788.00
2018-06-02T11:40:42.705Z,4036.00
2018-06-02T11:41:42.674Z,4328.00
2018-06-02T11:42:42.662Z,4452.00
2018-06-02T11:43:42.642Z,4516.00
2018-06-02T11:44:42.629Z,4680.00
2018-06-02T11:45:42.592Z,5004.00
2018-06-02T11:46:42.578Z,5296.00
2018-06-02T11:47:42.544Z,5540.00
2018-06-02T11:48:42.527Z,5868.00
2018-06-02T11:49:42.503Z,6256.00
2018-06-02T11:50:42.784Z,6580.00
2018-06-02T11:51:42.467Z,6876.00
2018-06-02T11:52:42.439Z,6892.00
2018-06-02T11:53:42.410Z,6840.00
2018-06-02T11:54:42.388Z,6728.00
2018-06-02T11:55:42.366Z,6416.00
2018-06-02T11:56:42.345Z,6560.00
2018-06-02T11:57:42.324Z,6912.00
2018-06-02T11:58:42.370Z,7176.00
2018-06-02T11:59:42.348Z,7384.00
2018-06-02T12:00:42.258Z,7012.00
2018-06-02T12:01:42.232Z,6476.00
2018-06-02T12:02:42.229Z,6284.00
2018-06-02T12:03:42.193Z,6788.00
2018-06-02T12:04:42.168Z,7508.00
2018-06-02T12:05:42.142Z,8212.00
2018-06-02T12:06:42.123Z,8772.00
2018-06-02T12:07:42.099Z,9616.00
2018-06-02T12:08:42.080Z,10688.00
2018-06-02T12:09:42.067Z,11392.00
2018-06-02T12:10:42.039Z,12088.00
2018-06-02T12:11:42.014Z,12444.00
2018-06-02T12:12:41.990Z,12152.00
2018-06-02T12:13:41.973Z,12056.00
2018-06-02T12:14:41.947Z,12200.00
2018-06-02T12:15:41.927Z,12064.00
2018-06-02T12:16:41.909Z,11492.00
2018-06-02T12:17:41.944Z,10724.00
2018-06-02T12:18:41.858Z,9928.00
2018-06-02T12:19:41.844Z,9180.00
2018-06-02T12:20:41.838Z,8712.00
2018-06-02T12:21:41.806Z,7780.00
2018-06-02T12:22:41.781Z,6868.00
2018-06-02T12:23:41.759Z,6608.00
2018-06-02T12:24:41.745Z,6724.00
2018-06-02T12:25:41.714Z,6772.00
2018-06-02T12:26:41.695Z,6896.00
2018-06-02T12:27:41.677Z,6784.00
2018-06-02T12:28:41.715Z,6512.00
2018-06-02T12:29:41.634Z,6560.00
2018-06-02T12:30:41.617Z,6784.00
2018-06-02T12:31:41.598Z,7228.00
2018-06-02T12:32:41.588Z,7848.00
2018-06-02T12:33:41.549Z,8440.00
2018-06-02T12:34:41.552Z,9024.00
2018-06-02T12:35:41.515Z,9540.00
2018-06-02T12:36:41.490Z,9892.00
2018-06-02T12:37:41.468Z,10144.00
2018-06-02T12:38:41.445Z,10344.00
2018-06-02T12:39:41.425Z,10520.00
2018-06-02T12:40:41.405Z,10344.00
2018-06-02T12:41:41.387Z,10164.00
2018-06-02T12:42:41.361Z,10184.00
2018-06-02T12:43:41.340Z,10012.00
2018-06-02T12:44:41.323Z,9648.00
2018-06-02T12:45:41.323Z,9040.00
2018-06-02T12:46:41.273Z,9068.00
2018-06-02T12:47:41.261Z,8792.00
2018-06-02T12:48:41.239Z,8716.00
2018-06-02T12:49:41.215Z,8672.00
2018-06-02T12:50:41.187Z,8480.00
2018-06-02T12:51:41.168Z,8184.00
2018-06-02T12:52:41.156Z,7972.00
2018-06-02T12:53:41.129Z,7688.00
2018-06-02T12:54:41.112Z,7232.00
2018-06-02T12:55:41.092Z,6968.00
2018-06-02T12:56:41.062Z,6748.00
2018-06-02T12:57:41.038Z,6724.00
2018-06-02T12:58:41.019Z,6968.00
2018-06-02T12:59:41.003Z,7548.00
2018-06-02T13:00:40.987Z,8160.00
2018-06-02T13:01:40.962Z,8384.00
2018-06-02T13:02:40.939Z,8212.00
2018-06-02T13:03:40.916Z,7860.00
2018-06-02T13:04:40.914Z,7496.00
2018-06-02T13:05:40.876Z,7652.00
2018-06-02T13:06:40.864Z,7940.00
2018-06-02T13:07:40.833Z,8064.00
2018-06-02T13:08:40.812Z,8272.00
2018-06-02T13:09:40.785Z,8604.00
2018-06-02T13:10:40.772Z,9140.00
2018-06-02T13:11:40.749Z,9640.00
2018-06-02T13:12:40.738Z,10032.00
2018-06-02T13:13:40.719Z,10384.00
2018-06-02T13:14:40.744Z,10712.00
2018-06-02T13:15:40.672Z,11220.00
2018-06-02T13:16:40.642Z,12052.00
2018-06-02T13:17:40.622Z,12732.00
2018-06-02T13:18:40.601Z,13428.00
2018-06-02T13:19:40.581Z,14068.00
2018-06-02T13:20:40.577Z,14756.00
2018-06-02T13:21:40.550Z,15040.00
2018-06-02T13:22:40.520Z,15056.00
2018-06-02T13:23:40.503Z,16196.00
2018-06-02T13:24:40.482Z,15992.00
2018-06-02T13:25:40.467Z,18464.00
2018-06-02T13:26:40.447Z,23744.00
2018-06-02T13:27:40.423Z,20544.00
2018-06-02T13:28:40.403Z,22080.00
2018-06-02T13:29:40.382Z,21504.00
2018-06-02T13:30:40.362Z,16924.00
2018-06-02T13:31:40.350Z,20256.00
2018-06-02T13:32:40.331Z,20448.00
2018-06-02T13:33:40.314Z,20576.00
2018-06-02T13:34:40.304Z,20800.00
2018-06-02T13:35:40.280Z,18560.00
2018-06-02T13:36:40.266Z,13412.00
2018-06-02T13:37:40.248Z,17888.00
2018-06-02T13:38:40.236Z,14820.00
2018-06-02T13:39:40.223Z,13288.00
2018-06-02T13:40:40.200Z,17984.00
2018-06-02T13:41:40.189Z,15080.00
2018-06-02T13:42:40.167Z,17312.00
2018-06-02T13:43:40.163Z,11164.00
2018-06-02T13:44:40.147Z,12444.00
2018-06-02T13:45:40.136Z,18912.00
2018-06-02T13:46:40.114Z,15484.00
2018-06-02T13:47:40.100Z,28544.00
2018-06-02T13:48:40.133Z,29824.00
2018-06-02T13:49:40.062Z,18432.00
2018-06-02T13:50:40.051Z,14920.00
2018-06-02T13:51:40.039Z,26432.00
2018-06-02T13:52:40.022Z,30784.00
2018-06-02T13:53:40.021Z,33792.00
2018-06-02T13:54:39.987Z,13928.00
2018-06-02T13:55:39.978Z,23616.00
2018-06-02T13:56:39.965Z,11352.00
2018-06-02T13:57:39.957Z,12768.00
2018-06-02T13:58:39.939Z,11188.00
2018-06-02T13:59:39.925Z,40608.00
2018-06-02T14:00:39.906Z,41440.00
2018-06-02T14:01:39.889Z,19936.00
2018-06-02T14:02:39.878Z,10144.00
2018-06-02T14:03:39.864Z,9144.00
2018-06-02T14:04:39.892Z,8796.00
2018-06-02T14:05:39.844Z,9844.00
2018-06-02T14:06:40.351Z,43680.00
2018-06-02T14:07:39.994Z,13812.00
2018-06-02T14:08:41.755Z,11888.00
2018-06-02T14:09:41.076Z,9456.00
2018-06-02T14:10:40.007Z,9660.00
2018-06-02T14:11:44.662Z,9880.00
2018-06-02T14:12:39.863Z,9120.00
2018-06-02T14:13:39.718Z,8672.00
2018-06-02T14:14:39.727Z,8268.00
2018-06-02T14:15:40.570Z,7628.00
2018-06-02T14:16:39.944Z,7168.00
2018-06-02T14:17:39.841Z,7020.00
2018-06-02T14:18:39.694Z,7028.00
2018-06-02T14:19:39.610Z,7116.00
2018-06-02T14:20:39.600Z,7328.00
2018-06-02T14:21:39.571Z,7520.00
2018-06-02T14:22:39.640Z,7816.00
2018-06-02T14:23:40.521Z,8040.00
2018-06-02T14:24:39.585Z,8264.00
2018-06-02T14:25:39.764Z,8964.00
2018-06-02T14:26:40.210Z,10220.00
2018-06-02T14:27:51.809Z,9216.00
2018-06-02T14:28:39.614Z,8892.00
2018-06-02T14:29:40.597Z,8632.00
2018-06-02T14:30:39.419Z,8116.00
2018-06-02T14:31:39.395Z,7732.00
2018-06-02T14:32:39.383Z,7340.00
2018-06-02T14:33:39.349Z,6980.00
2018-06-02T14:34:39.325Z,6984.00
2018-06-02T14:35:39.312Z,6636.00
2018-06-02T14:36:39.295Z,5992.00
2018-06-02T14:37:39.279Z,5504.00
2018-06-02T14:38:39.253Z,5144.00
2018-06-02T14:39:39.234Z,4680.00
2018-06-02T14:40:39.212Z,4124.00
2018-06-02T14:41:39.192Z,3760.00
2018-06-02T14:42:39.180Z,3492.00
2018-06-02T14:43:39.187Z,3260.00
2018-06-02T14:44:39.125Z,3024.00
2018-06-02T14:45:39.109Z,2816.00
2018-06-02T14:46:39.117Z,2692.00
2018-06-02T14:47:39.070Z,2628.00
2018-06-02T14:48:39.046Z,2620.00
2018-06-02T14:49:39.030Z,2668.00
2018-06-02T14:50:39.007Z,2804.00
2018-06-02T14:51:38.987Z,3028.00
2018-06-02T14:52:38.964Z,3204.00
2018-06-02T14:53:38.939Z,3276.00
2018-06-02T14:54:38.914Z,3356.00
2018-06-02T14:55:38.905Z,3452.00
2018-06-02T14:56:38.885Z,3552.00
2018-06-02T14:57:38.859Z,3700.00
2018-06-02T14:58:38.840Z,3868.00
2018-06-02T14:59:38.816Z,4016.00
2018-06-02T15:00:38.793Z,4152.00
2018-06-02T15:01:38.798Z,4280.00
2018-06-02T15:02:38.757Z,4380.00
2018-06-02T15:03:38.738Z,4516.00
2018-06-02T15:04:38.712Z,4652.00
2018-06-02T15:05:38.680Z,4884.00
2018-06-02T15:06:38.663Z,5136.00
2018-06-02T15:07:38.653Z,5472.00
2018-06-02T15:08:38.624Z,5848.00
2018-06-02T15:09:38.613Z,6352.00
2018-06-02T15:10:38.594Z,6992.00
2018-06-02T15:11:38.565Z,7868.00
2018-06-02T15:12:38.538Z,9164.00
2018-06-02T15:13:38.511Z,13272.00
2018-06-02T15:14:38.501Z,20352.00
2018-06-02T15:15:38.494Z,49856.00
2018-06-02T15:16:38.451Z,43808.00
2018-06-02T15:17:38.432Z,27840.00
2018-06-02T15:18:38.414Z,28416.00
2018-06-02T15:19:38.395Z,44512.00
2018-06-02T15:20:38.383Z,25536.00
2018-06-02T15:21:38.364Z,18496.00
2018-06-02T15:22:38.347Z,16312.00
2018-06-02T15:23:38.320Z,13532.00
2018-06-02T15:24:38.301Z,10800.00
2018-06-02T15:25:38.278Z,8704.00
2018-06-02T15:26:38.266Z,7248.00
2018-06-02T15:27:38.244Z,6920.00
2018-06-02T15:28:38.231Z,7140.00
2018-06-02T15:29:38.225Z,7704.00
2018-06-02T15:30:38.195Z,7748.00
2018-06-02T15:31:38.178Z,7324.00
2018-06-02T15:32:38.162Z,7196.00
2018-06-02T15:33:38.134Z,7136.00
2018-06-02T15:34:38.132Z,7088.00
2018-06-02T15:35:38.095Z,7068.00
2018-06-02T15:36:38.125Z,7216.00
2018-06-02T15:37:38.056Z,7512.00
2018-06-02T15:38:38.039Z,8680.00
2018-06-02T15:39:38.030Z,13672.00
2018-06-02T15:40:37.999Z,11832.00
2018-06-02T15:41:38.033Z,10888.00
2018-06-02T15:42:37.956Z,10860.00
2018-06-02T15:43:37.938Z,10792.00
2018-06-02T15:44:37.920Z,10732.00
2018-06-02T15:45:37.894Z,10728.00
2018-06-02T15:46:37.882Z,10504.00
2018-06-02T15:47:37.926Z,10156.00
2018-06-02T15:48:37.866Z,9972.00
2018-06-02T15:49:37.814Z,9932.00
2018-06-02T15:50:37.795Z,9932.00
2018-06-02T15:51:37.781Z,9972.00
2018-06-02T15:52:37.751Z,9928.00
2018-06-02T15:53:37.742Z,10068.00
2018-06-02T15:54:37.713Z,10300.00
2018-06-02T15:55:37.694Z,10808.00
2018-06-02T15:56:37.684Z,11764.00
2018-06-02T15:57:37.664Z,12132.00
2018-06-02T15:58:37.656Z,12856.00
2018-06-02T15:59:37.622Z,13464.00
2018-06-02T16:00:37.592Z,13700.00
2018-06-02T16:01:37.581Z,13836.00
2018-06-02T16:02:37.597Z,13984.00
2018-06-02T16:03:37.565Z,13796.00
2018-06-02T16:04:37.513Z,13320.00
2018-06-02T16:05:37.492Z,12844.00
2018-06-02T16:06:37.478Z,12528.00
2018-06-02T16:07:37.459Z,12200.00
2018-06-02T16:08:37.441Z,11780.00
2018-06-02T16:09:37.417Z,11368.00
2018-06-02T16:10:37.400Z,11324.00
2018-06-02T16:11:37.385Z,11668.00
2018-06-02T16:12:37.363Z,11848.00
2018-06-02T16:13:37.329Z,12164.00
2018-06-02T16:14:37.313Z,12504.00
2018-06-02T16:15:37.294Z,12728.00
2018-06-02T16:16:37.282Z,12636.00
2018-06-02T16:17:37.273Z,12608.00
2018-06-02T16:18:37.239Z,12900.00
2018-06-02T16:19:37.212Z,13464.00
2018-06-02T16:20:37.205Z,13992.00
2018-06-02T16:21:37.175Z,14524.00
2018-06-02T16:22:37.157Z,15076.00
2018-06-02T16:23:37.134Z,15236.00
2018-06-02T16:24:37.114Z,15508.00
2018-06-02T16:25:37.120Z,15988.00
2018-06-02T16:26:37.071Z,16176.00
2018-06-02T16:27:37.060Z,16132.00
2018-06-02T16:28:37.073Z,15752.00
2018-06-02T16:29:37.022Z,15304.00
2018-06-02T16:30:37.002Z,14900.00
2018-06-02T16:31:36.980Z,14400.00
2018-06-02T16:32:36.957Z,14256.00
2018-06-02T16:33:36.945Z,14420.00
2018-06-02T16:34:36.936Z,14244.00
2018-06-02T16:35:36.905Z,14004.00
2018-06-02T16:36:36.883Z,13912.00
2018-06-02T16:37:36.864Z,14240.00
2018-06-02T16:38:36.858Z,14948.00
2018-06-02T16:39:36.812Z,15172.00
2018-06-02T16:40:36.874Z,14744.00
2018-06-02T16:41:36.790Z,13880.00
2018-06-02T16:42:36.761Z,13208.00
2018-06-02T16:43:36.749Z,12820.00
2018-06-02T16:44:36.716Z,12724.00
2018-06-02T16:45:36.711Z,12552.00
2018-06-02T16:46:36.677Z,11940.00
2018-06-02T16:47:50.002Z,11540.00
2018-06-02T16:49:43.889Z,11148.00
2018-06-02T16:50:43.525Z,10676.00
2018-06-02T16:52:41.355Z,9588.00
2018-06-02T16:53:41.355Z,9500.00
2018-06-02T16:55:47.324Z,10880.00
2018-06-02T16:56:47.155Z,10904.00
2018-06-02T16:58:50.602Z,11988.00
2018-06-02T16:59:50.536Z,12288.00
2018-06-02T17:00:50.603Z,11816.00
2018-06-02T17:01:50.622Z,11276.00
2018-06-02T17:02:50.454Z,11256.00
2018-06-02T17:03:50.420Z,11792.00
2018-06-02T17:04:50.416Z,11884.00
2018-06-02T17:05:50.382Z,11356.00
2018-06-02T17:06:50.386Z,10280.00
2018-06-02T17:07:50.348Z,9152.00
2018-06-02T17:08:50.315Z,8148.00
2018-06-02T17:09:50.316Z,7312.00
2018-06-02T17:10:50.293Z,6664.00
2018-06-02T17:11:50.269Z,6348.00
2018-06-02T17:12:50.268Z,6560.00
2018-06-02T17:13:50.223Z,6728.00
2018-06-02T17:14:50.197Z,7000.00
2018-06-02T17:15:50.180Z,7536.00
2018-06-02T17:16:50.163Z,8232.00
2018-06-02T17:17:50.149Z,8836.00
2018-06-02T17:18:50.115Z,8984.00
2018-06-02T17:19:50.139Z,8756.00
2018-06-02T17:20:50.070Z,8760.00
2018-06-02T17:21:50.057Z,8716.00
2018-06-02T17:22:50.034Z,8808.00
2018-06-02T17:23:50.012Z,9048.00
2018-06-02T17:24:49.993Z,9280.00
2018-06-02T17:25:49.968Z,9388.00
2018-06-02T17:26:49.952Z,9304.00
2018-06-02T17:27:49.926Z,9036.00
2018-06-02T17:28:49.907Z,8672.00
2018-06-02T17:29:49.882Z,8324.00
2018-06-02T17:30:49.869Z,8096.00
2018-06-02T17:31:49.844Z,7972.00
2018-06-02T17:32:49.828Z,7772.00
2018-06-02T17:33:49.801Z,7492.00
2018-06-02T17:34:49.774Z,7220.00
2018-06-02T17:35:49.752Z,7064.00
2018-06-02T17:36:49.741Z,6984.00
2018-06-02T17:37:49.727Z,6904.00
2018-06-02T17:38:49.694Z,6860.00
2018-06-02T17:39:49.670Z,6888.00
2018-06-02T17:40:49.645Z,7168.00
2018-06-02T17:41:49.687Z,7220.00
2018-06-02T17:42:49.844Z,7496.00
2018-06-02T17:43:49.725Z,8900.00
2018-06-02T17:44:49.744Z,9684.00
2018-06-02T17:45:49.920Z,7140.00
2018-06-02T17:46:49.553Z,6868.00
2018-06-02T17:47:50.507Z,6800.00
2018-06-02T17:48:49.603Z,6912.00
2018-06-02T17:49:49.463Z,7148.00
2018-06-02T17:50:50.037Z,7248.00
2018-06-02T17:51:49.733Z,7284.00
2018-06-02T17:52:52.848Z,7184.00
2018-06-02T17:53:49.710Z,7040.00
2018-06-02T17:54:49.719Z,6848.00
2018-06-02T17:55:49.383Z,6680.00
2018-06-02T17:56:49.313Z,6648.00
2018-06-02T17:57:49.341Z,6680.00
2018-06-02T17:58:50.054Z,6756.00
2018-06-02T17:59:49.345Z,6916.00
2018-06-02T18:00:50.039Z,6824.00
2018-06-02T18:01:49.213Z,6588.00
2018-06-02T18:02:49.418Z,6272.00
2018-06-02T18:03:49.161Z,5932.00
2018-06-02T18:04:49.140Z,5600.00
2018-06-02T18:05:49.118Z,5376.00
2018-06-02T18:06:49.091Z,5368.00
2018-06-02T18:07:49.069Z,5384.00
2018-06-02T18:08:49.058Z,5288.00
2018-06-02T18:09:49.032Z,5092.00
2018-06-02T18:10:49.008Z,4840.00
2018-06-02T18:11:48.991Z,4584.00
2018-06-02T18:12:48.981Z,4360.00
2018-06-02T18:13:48.943Z,4224.00
2018-06-02T18:14:48.925Z,4156.00
2018-06-02T18:15:48.907Z,4128.00
2018-06-02T18:16:48.882Z,4192.00
2018-06-02T18:17:48.856Z,4456.00
2018-06-02T18:19:12.199Z,5212.00
2018-06-02T18:21:07.792Z,7100.00
2018-06-02T18:22:07.676Z,9480.00
2018-06-02T18:24:18.242Z,12928.00
2018-06-02T18:25:18.153Z,18784.00
2018-06-02T18:27:13.488Z,6000.00
2018-06-02T18:28:13.209Z,7108.00
2018-06-02T18:30:13.617Z,5748.00
2018-06-02T18:31:13.631Z,5448.00
2018-06-02T18:33:06.964Z,4860.00